Time;durP1;ratioP1;P1;durP2;ratioP2;P2;SDS_P1;SDS_P2;PMS_P1;PMS_P2;Temp;Humidity;BMP_temperature;BMP_pressure;BME280_temperature;BME280_humidity;BME280_pressure;Samples;Min_cycle;Max_cycle;Signal;HPM_P1;HPM_P2
2022/05/07 00:00:45;;;;;;;2.58;0.68;;;13.30;65.50;;;;;;5049492;28;20025;-68
2022/05/07 00:03:13;;;;;;;1.02;0.40;;;13.30;65.40;;;;;;5048986;28;20017;-68
2022/05/07 00:05:41;;;;;;;2.08;0.50;;;13.30;63.60;;;;;;5049106;28;20493;-68
2022/05/07 00:08:08;;;;;;;2.13;0.50;;;13.40;64.20;;;;;;5049035;28;20029;-69
2022/05/07 00:10:36;;;;;;;1.52;0.50;;;13.40;64.70;;;;;;5050143;28;20051;-68
2022/05/07 00:13:04;;;;;;;1.80;0.35;;;13.50;65.50;;;;;;5048630;28;20027;-68
2022/05/07 00:15:32;;;;;;;3.65;0.60;;;13.60;63.00;;;;;;5048941;28;20021;-68
2022/05/07 00:18:03;;;;;;;0.90;0.40;;;13.60;61.80;;;;;;5049867;28;20025;-67
2022/05/07 00:20:32;;;;;;;2.50;0.45;;;13.60;63.50;;;;;;5048334;28;20049;-68
2022/05/07 00:23:00;;;;;;;0.80;0.40;;;13.70;63.30;;;;;;5048967;28;20025;-68
2022/05/07 00:25:28;;;;;;;1.35;0.70;;;13.70;63.20;;;;;;5047751;28;20132;-68
2022/05/07 00:27:55;;;;;;;1.42;0.40;;;13.80;61.10;;;;;;5048765;28;20021;-67
2022/05/07 00:30:23;;;;;;;2.05;0.40;;;13.80;63.00;;;;;;5048185;28;20036;-68
2022/05/07 00:32:50;;;;;;;0.95;0.50;;;13.90;62.30;;;;;;5047513;28;20386;-67
2022/05/07 00:35:17;;;;;;;3.33;0.50;;;14.00;63.50;;;;;;5048228;28;20025;-66
2022/05/07 00:37:45;;;;;;;1.13;0.85;;;14.00;61.90;;;;;;5048695;28;20048;-68
2022/05/07 00:40:15;;;;;;;1.80;0.40;;;14.10;62.30;;;;;;5048527;28;20102;-67
2022/05/07 00:42:42;;;;;;;1.63;0.50;;;14.20;64.20;;;;;;5049416;28;20025;-68
2022/05/07 00:45:10;;;;;;;1.40;0.55;;;14.20;62.50;;;;;;5047460;28;20017;-68
2022/05/07 00:47:39;;;;;;;1.90;0.55;;;14.50;64.00;;;;;;5048099;28;20086;-68
2022/05/07 00:52:52;;;;;;;2.35;0.50;;;14.80;61.80;;;;;;5047059;28;20044;-68
2022/05/07 00:55:19;;;;;;;1.70;0.63;;;14.90;60.20;;;;;;5048251;28;20021;-68
2022/05/07 00:57:46;;;;;;;1.70;0.60;;;15.10;63.10;;;;;;5048134;28;20107;-68
2022/05/07 01:00:14;;;;;;;12.63;2.25;;;15.30;61.80;;;;;;5041017;28;20127;-65
2022/05/07 01:02:41;;;;;;;26.08;4.57;;;15.40;60.60;;;;;;5042835;28;20034;-66
2022/05/07 01:05:10;;;;;;;4.05;1.35;;;15.50;61.20;;;;;;5048019;28;20029;-60
2022/05/07 01:07:38;;;;;;;0.90;0.60;;;15.70;62.30;;;;;;5045393;28;20036;-60
2022/05/07 01:10:07;;;;;;;1.58;0.52;;;15.80;59.90;;;;;;5047667;28;20031;-60
2022/05/07 01:12:35;;;;;;;4.93;3.42;;;15.80;59.60;;;;;;5042788;28;20409;-60
2022/05/07 01:15:02;;;;;;;2.45;1.05;;;16.00;56.50;;;;;;5047237;28;20021;-61
2022/05/07 01:17:34;;;;;;;49.92;11.00;;;16.00;59.30;;;;;;5047397;28;20071;-59
2022/05/07 01:20:01;;;;;;;43.65;13.02;;;16.10;59.90;;;;;;5028417;28;20128;-60
2022/05/07 01:22:31;;;;;;;35.92;9.10;;;16.30;60.30;;;;;;5052656;28;20025;-60
2022/05/07 01:24:59;;;;;;;1.33;0.60;;;16.40;59.60;;;;;;5069383;28;20078;-60
2022/05/07 01:27:26;;;;;;;2.08;0.80;;;16.40;59.10;;;;;;5058863;28;20029;-60
2022/05/07 01:29:54;;;;;;;1.00;0.50;;;16.60;57.10;;;;;;5049152;28;20045;-61
2022/05/07 01:32:22;;;;;;;2.65;0.63;;;16.60;56.30;;;;;;5047223;28;20029;-62
2022/05/07 01:34:51;;;;;;;1.42;0.63;;;16.60;56.40;;;;;;5057452;28;20012;-62
2022/05/07 01:37:19;;;;;;;0.90;0.50;;;16.80;57.80;;;;;;5053036;28;20515;-62
2022/05/07 01:39:46;;;;;;;4.50;0.90;;;16.90;59.70;;;;;;5047606;28;20055;-63
2022/05/07 01:42:13;;;;;;;2.00;0.55;;;17.00;57.60;;;;;;5048939;28;20062;-59
2022/05/07 01:44:40;;;;;;;2.53;0.60;;;17.10;54.50;;;;;;5048263;28;20053;-61
2022/05/07 01:49:53;;;;;;;1.30;0.60;;;17.00;56.50;;;;;;5043449;28;20041;-61
2022/05/07 01:52:20;;;;;;;1.67;0.60;;;17.00;56.50;;;;;;5046213;28;20560;-61
2022/05/07 01:54:47;;;;;;;3.83;0.40;;;17.20;57.00;;;;;;5046601;28;20040;-62
2022/05/07 01:57:14;;;;;;;1.02;0.40;;;17.30;55.80;;;;;;5051885;28;20583;-60
2022/05/07 01:59:42;;;;;;;1.80;0.57;;;17.30;50.80;;;;;;5058227;28;20076;-61
2022/05/07 02:02:09;;;;;;;3.55;0.57;;;17.20;51.50;;;;;;5051973;28;20021;-63
2022/05/07 02:04:36;;;;;;;3.78;0.82;;;17.10;56.10;;;;;;5051476;28;20033;-59
2022/05/07 02:07:03;;;;;;;0.93;0.40;;;17.30;56.70;;;;;;5050619;28;20497;-60
2022/05/07 02:09:31;;;;;;;0.90;0.45;;;17.50;55.40;;;;;;5053910;28;20039;-60
2022/05/07 02:11:58;;;;;;;1.27;0.60;;;17.60;56.50;;;;;;5050695;28;20024;-60
2022/05/07 02:14:25;;;;;;;2.20;0.50;;;17.60;52.30;;;;;;5054958;28;20528;-60
2022/05/07 02:16:52;;;;;;;1.40;0.50;;;17.70;53.90;;;;;;5049325;28;20033;-60
2022/05/07 02:19:19;;;;;;;2.45;0.50;;;17.90;55.90;;;;;;5050057;28;20032;-60
2022/05/07 02:21:47;;;;;;;1.23;0.40;;;18.10;54.90;;;;;;5049057;28;20390;-62
2022/05/07 02:24:14;;;;;;;2.22;0.40;;;18.20;52.70;;;;;;5049495;28;20028;-63
2022/05/07 02:26:42;;;;;;;0.85;0.40;;;18.20;49.50;;;;;;5051333;28;20040;-61
2022/05/07 02:29:09;;;;;;;1.35;0.45;;;18.20;51.20;;;;;;5044530;28;20631;-61
2022/05/07 02:31:37;;;;;;;1.75;0.52;;;18.30;51.30;;;;;;5048412;28;20237;-59
2022/05/07 02:34:04;;;;;;;2.03;0.52;;;18.20;50.90;;;;;;5045891;28;20050;-61
2022/05/07 02:36:32;;;;;;;1.45;0.35;;;18.20;50.20;;;;;;5038261;28;20029;-62
2022/05/07 02:39:00;;;;;;;2.53;0.60;;;18.10;50.30;;;;;;5037218;28;20049;-60
2022/05/07 02:44:17;;;;;;;3.58;1.20;;;18.00;47.80;;;;;;5005483;28;20053;-61
2022/05/07 02:46:44;;;;;;;1.80;0.60;;;18.10;51.10;;;;;;5047949;28;20537;-61
2022/05/07 02:49:12;;;;;;;1.77;0.60;;;18.20;52.00;;;;;;5037058;28;20104;-61
2022/05/07 02:51:39;;;;;;;1.85;0.50;;;18.30;52.90;;;;;;5039894;28;20033;-60
2022/05/07 02:54:08;;;;;;;1.75;0.60;;;18.30;48.90;;;;;;5038179;28;20598;-60
2022/05/07 02:56:35;;;;;;;1.92;0.40;;;18.40;50.80;;;;;;5045343;28;20035;-61
2022/05/07 02:59:02;;;;;;;2.40;0.50;;;18.40;50.70;;;;;;5046014;28;20634;-60
2022/05/07 03:01:30;;;;;;;2.40;0.68;;;18.50;51.40;;;;;;5041346;28;20126;-61
2022/05/07 03:03:57;;;;;;;1.08;0.60;;;18.40;47.10;;;;;;5037795;28;21298;-61
2022/05/07 03:06:24;;;;;;;2.30;0.47;;;18.40;50.10;;;;;;5045487;28;20028;-61
2022/05/07 03:08:52;;;;;;;2.75;0.57;;;18.40;47.90;;;;;;5038832;28;20021;-61
2022/05/07 03:11:19;;;;;;;3.15;0.52;;;18.30;47.00;;;;;;5038624;28;20021;-63
2022/05/07 03:13:46;;;;;;;5.30;1.40;;;18.30;48.50;;;;;;5038927;28;20074;-67
2022/05/07 03:16:14;;;;;;;5.80;1.40;;;18.50;48.90;;;;;;5048420;28;20561;-66
2022/05/07 03:18:41;;;;;;;1.88;0.88;;;18.70;50.00;;;;;;5037704;28;20401;-62
2022/05/07 03:21:08;;;;;;;1.15;0.40;;;19.00;48.50;;;;;;5034114;28;20114;-65
2022/05/07 03:23:35;;;;;;;2.80;1.00;;;19.10;48.60;;;;;;5045126;28;20049;-64
2022/05/07 03:26:03;;;;;;;2.72;0.70;;;19.30;44.20;;;;;;5042080;28;20087;-62
2022/05/07 03:28:30;;;;;;;6.03;2.28;;;19.40;43.00;;;;;;5040393;28;20379;-65
2022/05/07 03:30:58;;;;;;;0.57;0.38;;;19.50;43.20;;;;;;5037472;28;20026;-62
2022/05/07 03:33:25;;;;;;;0.63;0.10;;;19.50;44.70;;;;;;5039535;28;20021;-63
2022/05/07 03:35:52;;;;;;;0.22;0.20;;;19.50;42.10;;;;;;5040104;28;20029;-69
2022/05/07 03:38:20;;;;;;;1.45;0.35;;;19.50;42.70;;;;;;5042394;28;20033;-63
2022/05/07 03:40:47;;;;;;;1.00;0.40;;;19.60;42.80;;;;;;5042144;28;20029;-66
2022/05/07 03:43:14;;;;;;;0.35;0.22;;;19.80;44.50;;;;;;5037781;28;20041;-67
2022/05/07 03:45:42;;;;;;;1.02;0.90;;;19.80;41.90;;;;;;5043142;28;20024;-66
2022/05/07 03:48:10;;;;;;;0.35;0.22;;;19.80;42.70;;;;;;5039643;28;20033;-66
2022/05/07 03:50:37;;;;;;;3.42;0.40;;;19.70;40.60;;;;;;5038289;28;20047;-61
2022/05/07 03:55:50;;;;;;;3.22;0.70;;;19.50;41.60;;;;;;5042593;28;20028;-66
2022/05/07 03:58:18;;;;;;;0.20;0.20;;;19.60;41.60;;;;;;5043732;28;20025;-68
2022/05/07 04:00:45;;;;;;;0.65;0.30;;;19.60;41.90;;;;;;5040802;28;20393;-67
2022/05/07 04:03:13;;;;;;;0.85;0.50;;;19.40;41.40;;;;;;5040179;28;20074;-66
2022/05/07 04:05:41;;;;;;;1.20;0.32;;;19.40;41.30;;;;;;5037579;28;20032;-66
2022/05/07 04:08:08;;;;;;;0.25;0.10;;;19.30;41.10;;;;;;5042696;28;20103;-65
2022/05/07 04:10:35;;;;;;;0.13;0.13;;;19.40;43.20;;;;;;5046859;28;20029;-62
2022/05/07 04:13:02;;;;;;;0.90;0.20;;;19.40;40.70;;;;;;5042901;28;20028;-63
2022/05/07 04:15:30;;;;;;;1.85;0.40;;;19.20;41.50;;;;;;5041540;28;20021;-65
2022/05/07 04:17:57;;;;;;;1.10;0.20;;;19.10;41.30;;;;;;5043128;28;20017;-65
2022/05/07 04:20:25;;;;;;;0.60;0.20;;;19.00;41.90;;;;;;5044506;28;20037;-65
2022/05/07 04:22:52;;;;;;;1.27;0.47;;;18.90;42.00;;;;;;5049125;28;20359;-63
2022/05/07 04:25:19;;;;;;;4.68;0.32;;;18.80;42.40;;;;;;5049274;28;20033;-64
2022/05/07 04:27:46;;;;;;;0.43;0.32;;;18.80;43.30;;;;;;5059041;28;20032;-64
2022/05/07 04:30:14;;;;;;;2.35;0.40;;;18.80;43.40;;;;;;5045562;28;20109;-63
2022/05/07 04:32:41;;;;;;;1.33;0.40;;;18.90;42.30;;;;;;5038551;28;20028;-63
2022/05/07 04:35:08;;;;;;;0.57;0.20;;;18.90;42.40;;;;;;5050785;28;20071;-62
2022/05/07 04:37:36;;;;;;;2.88;0.20;;;18.90;41.80;;;;;;5034311;28;20021;-62
2022/05/07 04:40:03;;;;;;;1.63;0.17;;;18.90;43.50;;;;;;5041745;28;20037;-66
2022/05/07 04:42:31;;;;;;;1.42;0.28;;;18.90;42.40;;;;;;5038924;28;20425;-65
2022/05/07 04:45:01;;;;;;;2.92;0.47;;;18.90;41.90;;;;;;5042129;28;20036;-62
2022/05/07 04:47:28;;;;;;;0.50;0.22;;;18.80;40.90;;;;;;5038231;28;20079;-63
2022/05/07 04:49:55;;;;;;;5.97;0.40;;;18.70;42.60;;;;;;5044255;28;20025;-63
2022/05/07 04:52:22;;;;;;;0.77;0.17;;;18.80;42.00;;;;;;5040533;28;20021;-64
2022/05/07 04:54:50;;;;;;;0.65;0.30;;;18.70;40.80;;;;;;5046905;28;20492;-62
2022/05/07 04:57:17;;;;;;;0.80;0.40;;;18.60;43.20;;;;;;5043249;28;20017;-62
2022/05/07 04:59:44;;;;;;;1.92;0.20;;;18.50;44.60;;;;;;5043335;28;20098;-61
2022/05/07 05:02:11;;;;;;;0.52;0.20;;;18.50;44.00;;;;;;5047523;28;20119;-63
2022/05/07 05:04:39;;;;;;;1.27;0.22;;;18.50;43.60;;;;;;5046399;28;20033;-63
2022/05/07 05:07:06;;;;;;;1.90;0.30;;;18.40;43.80;;;;;;5041820;28;20654;-64
2022/05/07 05:09:33;;;;;;;2.00;0.50;;;18.40;43.10;;;;;;5041548;28;20040;-62
2022/05/07 05:12:06;;;;;;;0.28;0.15;;;18.40;43.00;;;;;;5036366;28;20095;-63
2022/05/07 05:17:18;;;;;;;3.60;1.27;;;18.20;43.00;;;;;;5039354;28;20031;-64
2022/05/07 05:19:46;;;;;;;4.82;0.93;;;18.20;43.80;;;;;;5060222;28;20107;-62
2022/05/07 05:22:13;;;;;;;0.90;0.60;;;18.20;43.90;;;;;;5032840;28;20116;-65
2022/05/07 05:24:40;;;;;;;0.88;0.40;;;18.10;43.60;;;;;;5041021;28;20025;-65
2022/05/07 05:27:07;;;;;;;0.30;0.25;;;18.10;44.20;;;;;;5040272;28;20238;-65
2022/05/07 05:29:34;;;;;;;0.40;0.30;;;18.10;43.80;;;;;;5043012;28;20036;-64
2022/05/07 05:32:02;;;;;;;1.50;0.25;;;18.00;44.50;;;;;;5043890;28;20482;-65
2022/05/07 05:34:29;;;;;;;0.28;0.20;;;18.00;44.40;;;;;;5046250;28;20035;-66
2022/05/07 05:36:56;;;;;;;1.00;0.22;;;17.90;44.40;;;;;;5043875;28;20486;-63
2022/05/07 05:39:24;;;;;;;4.53;0.57;;;17.90;44.60;;;;;;5042544;28;20055;-66
2022/05/07 05:41:51;;;;;;;1.00;0.30;;;17.80;45.60;;;;;;5044570;28;20021;-66
2022/05/07 05:44:18;;;;;;;0.50;0.30;;;17.70;46.10;;;;;;5042568;28;20112;-67
2022/05/07 05:46:45;;;;;;;2.40;0.30;;;17.60;45.50;;;;;;5046560;28;20029;-66
2022/05/07 05:49:13;;;;;;;1.33;0.50;;;17.60;45.30;;;;;;5037299;28;20132;-67
2022/05/07 05:51:40;;;;;;;4.47;0.40;;;17.40;46.00;;;;;;5058537;28;20021;-67
2022/05/07 05:54:07;;;;;;;1.17;0.60;;;17.40;46.00;;;;;;5043249;28;20201;-66
2022/05/07 05:56:34;;;;;;;5.45;0.40;;;17.40;44.70;;;;;;5056996;28;20040;-66
2022/05/07 05:59:01;;;;;;;6.47;0.30;;;17.30;46.00;;;;;;5043099;28;20115;-66
2022/05/07 06:01:28;;;;;;;3.95;0.40;;;17.20;45.90;;;;;;5032347;28;20025;-66
2022/05/07 06:03:56;;;;;;;0.20;0.20;;;17.10;45.70;;;;;;5042830;28;20355;-66
2022/05/07 06:06:23;;;;;;;3.70;0.30;;;17.00;46.50;;;;;;5040327;28;20036;-66
2022/05/07 06:08:50;;;;;;;0.73;0.30;;;16.90;46.50;;;;;;5041693;28;20037;-67
2022/05/07 06:11:17;;;;;;;1.92;0.40;;;16.80;46.90;;;;;;5035791;28;20025;-66
2022/05/07 06:13:47;;;;;;;1.42;0.38;;;16.80;47.90;;;;;;5042590;28;20057;-66
2022/05/07 06:16:14;;;;;;;2.38;0.68;;;16.70;47.30;;;;;;5042416;28;20109;-66
2022/05/07 06:18:42;;;;;;;0.50;0.30;;;16.70;46.70;;;;;;5039732;28;20092;-66
2022/05/07 06:21:09;;;;;;;0.63;0.22;;;16.60;46.40;;;;;;5041345;28;20488;-65
2022/05/07 06:23:36;;;;;;;1.83;0.40;;;16.60;46.60;;;;;;5030941;28;20799;-65
2022/05/07 06:28:49;;;;;;;0.63;0.30;;;16.30;48.30;;;;;;5038450;28;20414;-66
2022/05/07 06:31:17;;;;;;;1.35;0.40;;;16.30;48.50;;;;;;5042068;28;20021;-66
2022/05/07 06:33:45;;;;;;;3.08;0.52;;;16.20;48.60;;;;;;5047437;28;20558;-67
2022/05/07 06:36:13;;;;;;;0.57;0.30;;;16.10;49.00;;;;;;5044332;28;20104;-66
2022/05/07 06:38:40;;;;;;;0.57;0.20;;;16.10;48.30;;;;;;5032349;28;20056;-67
2022/05/07 06:41:08;;;;;;;1.48;0.30;;;15.90;49.80;;;;;;5036042;28;20309;-69
2022/05/07 06:43:35;;;;;;;1.45;0.57;;;15.80;50.00;;;;;;5034961;28;20120;-67
2022/05/07 06:46:03;;;;;;;0.70;0.32;;;15.70;48.80;;;;;;5039967;28;20025;-66
2022/05/07 06:48:30;;;;;;;1.30;0.28;;;15.60;48.40;;;;;;5045890;28;20377;-66
2022/05/07 06:50:57;;;;;;;0.68;0.40;;;15.60;47.90;;;;;;5040203;28;20025;-67
2022/05/07 06:53:25;;;;;;;1.13;0.30;;;15.50;47.30;;;;;;5045906;28;20461;-66
2022/05/07 06:55:55;;;;;;;2.47;0.40;;;15.40;48.10;;;;;;5037641;28;20029;-67
2022/05/07 06:58:27;;;;;;;1.27;0.32;;;15.30;48.20;;;;;;5047572;28;20106;-67
2022/05/07 07:00:54;;;;;;;1.85;1.17;;;15.20;49.60;;;;;;5046376;28;20025;-66
2022/05/07 07:03:23;;;;;;;1.13;0.40;;;15.10;48.90;;;;;;5042869;28;20029;-67
2022/05/07 07:05:52;;;;;;;3.88;0.50;;;14.90;48.90;;;;;;5040913;28;20033;-68
2022/05/07 07:08:20;;;;;;;1.33;0.40;;;14.80;50.30;;;;;;5045047;28;20029;-69
2022/05/07 07:10:48;;;;;;;1.77;0.75;;;14.70;50.50;;;;;;5041426;28;20044;-68
2022/05/07 07:13:18;;;;;;;0.85;0.55;;;14.50;50.70;;;;;;5046222;28;20359;-68
2022/05/07 07:15:45;;;;;;;1.92;0.60;;;14.30;51.50;;;;;;5042717;28;20036;-67
2022/05/07 07:18:12;;;;;;;1.33;0.55;;;14.20;51.80;;;;;;5041788;28;20564;-68
2022/05/07 07:20:44;;;;;;;1.00;0.60;;;14.10;52.20;;;;;;5039301;28;20383;-64
2022/05/07 07:23:11;;;;;;;2.97;0.80;;;14.00;52.40;;;;;;5042561;28;20028;-65
2022/05/07 07:25:40;;;;;;;3.50;1.38;;;13.90;53.00;;;;;;5042397;28;20032;-67
2022/05/07 07:28:09;;;;;;;1.55;0.77;;;13.80;53.50;;;;;;5044876;28;20351;-67
2022/05/07 07:30:36;;;;;;;1.00;0.65;;;13.70;53.40;;;;;;5044676;28;20715;-67
2022/05/07 07:33:10;;;;;;;2.55;1.20;;;13.70;53.50;;;;;;5041811;28;20497;-65
2022/05/07 07:35:37;;;;;;;2.15;0.90;;;13.50;53.80;;;;;;5046186;28;20021;-67
2022/05/07 07:38:04;;;;;;;8.25;2.25;;;13.40;53.80;;;;;;5045747;28;20102;-67
2022/05/07 07:40:31;;;;;;;4.97;2.80;;;13.40;54.10;;;;;;5046390;28;20036;-67
2022/05/07 07:42:59;;;;;;;6.22;2.40;;;13.30;54.70;;;;;;5048909;28;20056;-67
2022/05/07 07:48:11;;;;;;;3.83;2.10;;;13.10;54.50;;;;;;5036401;28;20393;-67
2022/05/07 07:50:39;;;;;;;2.30;1.20;;;13.00;55.10;;;;;;5052341;28;20497;-66
2022/05/07 07:53:10;;;;;;;4.10;1.52;;;12.80;56.40;;;;;;5050740;28;20025;-67
2022/05/07 07:55:38;;;;;;;3.53;1.50;;;12.60;55.90;;;;;;5033006;28;20053;-67
2022/05/07 07:58:07;;;;;;;2.70;1.15;;;12.50;56.50;;;;;;5046847;28;20021;-66
2022/05/07 08:00:37;;;;;;;2.47;1.27;;;12.40;56.80;;;;;;5038748;28;20042;-66
2022/05/07 08:03:10;;;;;;;5.82;1.73;;;12.30;57.00;;;;;;5039930;28;20025;-68
2022/05/07 08:05:38;;;;;;;4.03;1.65;;;12.20;57.80;;;;;;5045034;28;20055;-66
2022/05/07 08:13:39;;;;;;;1.52;1.17;;;11.90;59.30;;;;;;5044581;28;20040;-62
2022/05/07 08:16:08;;;;;;;3.20;1.25;;;11.90;58.40;;;;;;5051853;28;20580;-67
2022/05/07 08:18:36;;;;;;;2.53;1.25;;;11.80;58.90;;;;;;5053143;28;20093;-66
2022/05/07 08:21:05;;;;;;;4.90;1.83;;;11.80;59.00;;;;;;5044586;28;20033;-65
2022/05/07 08:23:33;;;;;;;4.05;1.88;;;11.80;59.20;;;;;;5040341;28;20053;-67
2022/05/07 08:26:04;;;;;;;5.20;2.17;;;11.80;59.10;;;;;;5045813;28;20548;-66
2022/05/07 08:28:32;;;;;;;5.07;1.80;;;11.70;59.10;;;;;;5042996;28;20103;-68
2022/05/07 08:31:00;;;;;;;3.80;1.80;;;11.80;59.20;;;;;;5039293;28;20017;-68
2022/05/07 08:33:29;;;;;;;4.25;1.63;;;11.70;59.70;;;;;;5044857;28;20021;-66
2022/05/07 08:35:56;;;;;;;5.25;1.98;;;11.70;59.90;;;;;;5047637;28;20075;-67
2022/05/07 08:38:24;;;;;;;3.45;1.65;;;11.70;60.30;;;;;;5039251;28;20068;-67
2022/05/07 08:40:52;;;;;;;2.63;1.02;;;11.60;59.70;;;;;;5043850;28;20044;-67
2022/05/07 08:43:20;;;;;;;5.97;1.10;;;11.60;59.60;;;;;;5061433;28;20067;-66
2022/05/07 08:45:47;;;;;;;2.97;1.77;;;11.50;60.60;;;;;;5046153;28;20402;-67
2022/05/07 08:48:14;;;;;;;6.03;1.83;;;11.40;60.20;;;;;;5027882;28;20473;-67
2022/05/07 08:50:44;;;;;;;7.25;1.92;;;11.40;60.60;;;;;;5047330;28;20029;-66
2022/05/07 08:53:11;;;;;;;2.35;1.17;;;11.30;61.10;;;;;;5047065;28;20067;-67
2022/05/07 08:55:38;;;;;;;3.25;1.70;;;11.30;61.10;;;;;;5046983;28;20079;-68
2022/05/07 08:58:05;;;;;;;2.95;1.73;;;11.40;60.90;;;;;;5027757;28;20026;-67
2022/05/07 09:00:33;;;;;;;2.33;1.45;;;11.30;61.00;;;;;;5032830;28;20029;-67
2022/05/07 09:03:03;;;;;;;1.63;1.30;;;11.30;60.80;;;;;;5035873;28;20488;-67
2022/05/07 09:05:38;;;;;;;3.85;1.00;;;11.40;60.60;;;;;;5040942;28;20043;-67
2022/05/07 09:08:07;;;;;;;2.50;1.23;;;11.40;61.40;;;;;;5038071;28;20608;-67
2022/05/07 09:10:38;;;;;;;3.70;1.02;;;11.30;60.70;;;;;;5045115;28;20089;-67
2022/05/07 09:13:08;;;;;;;3.72;1.35;;;11.30;61.20;;;;;;5046841;28;20108;-68
2022/05/07 09:15:54;;;;;;;1.90;0.85;;;11.20;61.70;;;;;;5045219;28;20037;-67
2022/05/07 09:18:22;;;;;;;1.88;1.10;;;11.30;61.20;;;;;;5026095;28;20382;-68
2022/05/07 09:21:16;;;;;;;1.77;0.73;;;11.20;61.40;;;;;;5029813;28;20055;-68
2022/05/07 09:23:48;;;;;;;4.55;2.25;;;11.30;61.50;;;;;;5046005;28;20747;-67
2022/05/07 09:26:44;;;;;;;1.85;1.10;;;11.30;61.30;;;;;;5029149;28;20033;-67
2022/05/07 09:29:13;;;;;;;2.63;1.13;;;11.30;62.20;;;;;;5037592;28;20110;-66
2022/05/07 09:31:42;;;;;;;6.63;1.75;;;11.20;62.40;;;;;;5045952;28;20056;-67
2022/05/07 09:37:18;;;;;;;1.20;0.80;;;11.30;62.80;;;;;;5038376;28;20040;-67
2022/05/07 09:39:52;;;;;;;2.25;0.73;;;11.30;62.80;;;;;;5043508;28;20044;-67
2022/05/07 09:42:20;;;;;;;;;;;11.20;62.40;;;;;;5040954;28;20021;-67
2022/05/07 09:44:48;;;;;;;2.30;1.00;;;11.20;63.20;;;;;;5046689;28;20588;-68
2022/05/07 09:47:16;;;;;;;2.35;0.95;;;11.10;63.40;;;;;;5035718;28;20080;-67
2022/05/07 09:52:31;;;;;;;4.82;1.35;;;10.80;64.30;;;;;;5044791;28;20036;-68
2022/05/07 09:57:45;;;;;;;2.90;1.15;;;10.60;65.30;;;;;;5040879;28;20397;-67
2022/05/07 10:00:16;;;;;;;6.03;1.35;;;10.40;66.10;;;;;;5041929;28;20033;-68
2022/05/07 10:03:06;;;;;;;3.92;1.27;;;10.30;66.60;;;;;;5041819;28;20021;-68
2022/05/07 10:06:11;;;;;;;1.50;1.00;;;10.30;67.10;;;;;;5045015;28;20021;-66
2022/05/07 10:08:42;;;;;;;3.78;1.40;;;10.40;66.70;;;;;;5028342;28;20029;-67
2022/05/07 10:11:09;;;;;;;2.38;1.02;;;10.30;66.00;;;;;;5036208;28;20556;-67
2022/05/07 10:13:38;;;;;;;4.22;1.65;;;10.20;66.00;;;;;;5039654;28;20451;-67
2022/05/07 10:16:06;;;;;;;6.15;2.33;;;10.10;66.90;;;;;;5041920;28;20079;-67
2022/05/07 10:18:38;;;;;;;7.53;2.47;;;10.00;67.60;;;;;;5046037;28;20626;-67
2022/05/07 10:21:17;;;;;;;7.38;3.25;;;9.80;68.10;;;;;;5047772;28;20128;-67
2022/05/07 10:23:55;;;;;;;9.05;3.75;;;9.70;69.80;;;;;;5036917;28;20036;-67
2022/05/07 10:26:45;;;;;;;4.55;1.73;;;9.70;69.40;;;;;;5035743;28;20018;-67
2022/05/07 10:29:26;;;;;;;7.50;1.85;;;9.70;68.90;;;;;;5043059;28;20026;-66
2022/05/07 10:32:04;;;;;;;4.65;1.50;;;9.70;68.90;;;;;;5044229;28;20391;-66
2022/05/07 10:34:31;;;;;;;5.82;2.00;;;9.60;69.10;;;;;;5042495;28;20036;-67
2022/05/07 10:37:07;;;;;;;2.92;1.50;;;9.60;69.70;;;;;;5049070;28;20028;-67
2022/05/07 10:39:36;;;;;;;4.03;1.40;;;9.60;69.90;;;;;;5049495;28;20705;-67
2022/05/07 10:42:17;;;;;;;2.72;1.20;;;9.50;70.20;;;;;;5050820;28;20017;-66
2022/05/07 10:44:45;;;;;;;4.82;1.73;;;9.40;70.00;;;;;;5057230;28;20028;-66
2022/05/07 10:47:20;;;;;;;6.40;2.00;;;9.40;70.90;;;;;;5050324;28;20102;-65
2022/05/07 10:50:10;;;;;;;3.03;1.40;;;9.40;73.50;;;;;;5043089;28;20030;-67
2022/05/07 10:52:38;;;;;;;2.40;1.40;;;9.30;73.40;;;;;;5045885;28;20060;-65
2022/05/07 10:55:16;;;;;;;4.40;1.60;;;9.20;73.20;;;;;;5051407;28;20067;-66
2022/05/07 10:57:48;;;;;;;5.57;1.67;;;9.00;73.60;;;;;;5051378;28;20029;-66
2022/05/07 11:00:19;;;;;;;4.50;1.50;;;8.90;74.30;;;;;;5052384;28;20041;-66
2022/05/07 11:02:48;;;;;;;3.03;1.48;;;8.70;74.10;;;;;;5050620;28;20029;-66
2022/05/07 11:05:17;;;;;;;5.20;1.95;;;8.70;74.80;;;;;;5051951;28;20486;-67
2022/05/07 11:07:44;;;;;;;4.65;1.60;;;8.60;75.40;;;;;;5051302;28;20021;-65
2022/05/07 11:10:12;;;;;;;3.70;1.75;;;8.50;75.40;;;;;;5052623;28;20032;-66
2022/05/07 11:12:40;;;;;;;2.28;1.10;;;8.50;76.20;;;;;;5052130;28;20040;-68
2022/05/07 11:15:10;;;;;;;4.78;1.25;;;8.50;76.50;;;;;;5052050;28;20032;-67
2022/05/07 11:17:40;;;;;;;2.88;1.45;;;8.50;75.80;;;;;;5051972;28;20108;-67
2022/05/07 11:20:08;;;;;;;2.22;1.35;;;8.50;76.70;;;;;;5051911;28;20071;-66
2022/05/07 11:22:39;;;;;;;2.70;1.50;;;8.60;76.70;;;;;;5051935;28;20024;-66
2022/05/07 11:25:08;;;;;;;6.05;1.70;;;8.60;76.90;;;;;;5052024;28;20517;-67
2022/05/07 11:27:35;;;;;;;3.33;1.58;;;8.60;76.30;;;;;;5050347;28;20427;-67
2022/05/07 11:30:04;;;;;;;4.50;1.35;;;8.60;76.10;;;;;;5051141;28;20033;-66
2022/05/07 11:32:40;;;;;;;3.40;1.27;;;8.60;75.70;;;;;;5051615;28;20032;-67
2022/05/07 11:35:08;;;;;;;4.20;1.67;;;8.50;76.50;;;;;;5051727;28;20047;-66
2022/05/07 11:37:43;;;;;;;3.28;1.55;;;8.40;77.10;;;;;;5050119;28;20131;-65
2022/05/07 11:40:13;;;;;;;4.00;1.38;;;8.40;77.30;;;;;;5050063;28;20045;-66
2022/05/07 11:42:49;;;;;;;3.05;1.45;;;8.30;77.80;;;;;;5051527;28;20025;-67
2022/05/07 11:45:26;;;;;;;3.90;1.92;;;8.30;77.30;;;;;;5051806;28;20179;-66
2022/05/07 11:48:14;;;;;;;8.77;2.03;;;8.30;77.30;;;;;;5050265;28;20167;-66
2022/05/07 11:50:51;;;;;;;3.38;1.92;;;8.10;77.50;;;;;;5051743;28;20032;-66
2022/05/07 11:53:26;;;;;;;4.20;1.88;;;8.10;78.50;;;;;;5051314;28;20044;-65
2022/05/07 11:56:04;;;;;;;2.67;1.45;;;8.10;78.70;;;;;;5050043;28;20036;-66
2022/05/07 11:58:40;;;;;;;4.97;2.10;;;8.00;79.80;;;;;;5050095;28;20477;-66
2022/05/07 12:01:18;;;;;;;4.18;1.23;;;7.90;80.50;;;;;;5051215;28;20600;-67
2022/05/07 12:03:45;;;;;;;3.75;1.75;;;7.90;81.40;;;;;;5051634;28;20096;-65
2022/05/07 12:06:27;;;;;;;4.88;2.55;;;7.80;81.50;;;;;;5050087;28;20025;-68
2022/05/07 12:08:55;;;;;;;5.95;3.10;;;7.70;82.00;;;;;;5049857;28;20036;-66
2022/05/07 12:11:22;;;;;;;6.30;2.60;;;7.70;82.20;;;;;;5050831;28;20017;-66
2022/05/07 12:13:50;;;;;;;7.57;3.03;;;7.80;82.90;;;;;;5051073;28;20021;-67
2022/05/07 12:19:03;;;;;;;7.85;3.30;;;7.80;81.80;;;;;;5051121;28;20446;-66
2022/05/07 12:29:49;;;;;;;3.47;1.60;;;7.70;81.30;;;;;;5051641;28;19915;-67
2022/05/07 12:32:19;;;;;;;2.47;1.38;;;7.60;81.70;;;;;;5049469;28;20047;-66
2022/05/07 12:34:47;;;;;;;1.75;1.00;;;7.50;82.20;;;;;;5051020;28;20028;-67
2022/05/07 12:37:15;;;;;;;4.85;1.58;;;7.50;82.70;;;;;;5050956;28;20071;-65
2022/05/07 12:39:43;;;;;;;5.45;1.40;;;7.50;83.30;;;;;;5050666;28;20076;-66
2022/05/07 12:42:12;;;;;;;4.15;1.98;;;7.50;82.90;;;;;;5050183;28;20021;-66
2022/05/07 12:44:42;;;;;;;3.08;1.30;;;7.40;82.20;;;;;;5050379;28;20492;-66
2022/05/07 12:47:09;;;;;;;3.15;1.52;;;7.30;81.70;;;;;;5050171;28;20027;-65
2022/05/07 12:49:37;;;;;;;4.10;1.80;;;7.20;82.70;;;;;;5050278;28;20029;-66
2022/05/07 12:52:09;;;;;;;2.60;1.48;;;7.10;83.50;;;;;;5048673;28;20017;-67
2022/05/07 12:54:37;;;;;;;2.53;1.80;;;7.10;84.50;;;;;;5050379;28;20251;-66
2022/05/07 12:57:06;;;;;;;3.33;1.60;;;7.00;85.60;;;;;;5049850;28;20083;-66
2022/05/07 12:59:33;;;;;;;5.63;2.08;;;7.00;87.30;;;;;;5050166;28;20040;-67
2022/05/07 13:02:03;;;;;;;5.35;1.85;;;7.20;88.40;;;;;;5050142;28;20028;-66
2022/05/07 13:04:32;;;;;;;8.20;2.10;;;7.40;89.10;;;;;;5049972;28;20027;-66
2022/05/07 13:06:59;;;;;;;4.07;1.80;;;7.60;87.90;;;;;;5050195;28;20024;-67
2022/05/07 13:09:26;;;;;;;7.00;2.42;;;7.60;86.60;;;;;;5050029;28;20104;-66
2022/05/07 13:11:54;;;;;;;6.97;2.80;;;7.70;85.70;;;;;;5049939;28;20021;-65
2022/05/07 13:14:21;;;;;;;51.67;22.60;;;8.00;83.00;;;;;;5049943;28;20033;-65
2022/05/07 13:16:49;;;;;;;35.28;15.65;;;8.00;83.20;;;;;;5049828;28;20024;-66
2022/05/07 13:19:16;;;;;;;22.15;10.23;;;7.90;83.80;;;;;;5049502;28;20043;-66
2022/05/07 13:21:44;;;;;;;19.85;9.27;;;7.80;84.60;;;;;;5042366;28;20413;-64
2022/05/07 13:24:12;;;;;;;14.38;7.82;;;7.70;84.30;;;;;;5045500;28;20021;-66
2022/05/07 13:26:42;;;;;;;9.18;4.97;;;7.60;85.20;;;;;;5049415;28;20025;-65
2022/05/07 13:29:11;;;;;;;12.70;5.53;;;7.50;85.00;;;;;;5048319;28;20495;-66
2022/05/07 13:31:39;;;;;;;9.90;4.65;;;7.40;86.00;;;;;;5034613;28;20024;-65
2022/05/07 13:34:06;;;;;;;7.70;3.13;;;7.40;85.40;;;;;;5049083;28;20191;-66
2022/05/07 13:36:34;;;;;;;7.25;3.35;;;7.30;85.60;;;;;;5047831;28;20029;-65
2022/05/07 13:39:01;;;;;;;4.55;2.65;;;7.20;85.90;;;;;;5048269;28;20099;-66
2022/05/07 13:41:29;;;;;;;5.95;2.53;;;7.20;86.00;;;;;;5064239;28;20025;-65